sensor_id;sensor_type;location;lat;lon;timestamp;P1;durP1;ratioP1;P2;durP2;ratioP2
12665;SDS011;58531;59.050;17.416;2022-09-12T00:00:40;4.93;;;3.50;;
12665;SDS011;58531;59.050;17.416;2022-09-12T00:03:07;3.57;;;3.03;;
12665;SDS011;58531;59.050;17.416;2022-09-12T00:05:39;4.53;;;3.37;;
12665;SDS011;58531;59.050;17.416;2022-09-12T00:08:06;4.90;;;3.00;;
12665;SDS011;58531;59.050;17.416;2022-09-12T00:10:35;4.97;;;3.77;;
12665;SDS011;58531;59.050;17.416;2022-09-12T00:13:03;3.83;;;2.70;;
12665;SDS011;58531;59.050;17.416;2022-09-12T00:15:30;4.17;;;3.50;;
12665;SDS011;58531;59.050;17.416;2022-09-12T00:17:58;3.80;;;3.40;;
12665;SDS011;58531;59.050;17.416;2022-09-12T00:20:25;5.70;;;3.80;;
12665;SDS011;58531;59.050;17.416;2022-09-12T00:22:52;6.27;;;4.70;;
12665;SDS011;58531;59.050;17.416;2022-09-12T00:25:19;7.33;;;5.17;;
12665;SDS011;58531;59.050;17.416;2022-09-12T00:27:45;7.90;;;6.23;;
12665;SDS011;58531;59.050;17.416;2022-09-12T00:30:12;7.17;;;6.47;;
12665;SDS011;58531;59.050;17.416;2022-09-12T00:32:39;4.87;;;3.97;;
12665;SDS011;58531;59.050;17.416;2022-09-12T00:35:07;7.00;;;3.87;;
12665;SDS011;58531;59.050;17.416;2022-09-12T00:37:34;5.10;;;3.90;;
12665;SDS011;58531;59.050;17.416;2022-09-12T00:40:01;4.20;;;3.80;;
12665;SDS011;58531;59.050;17.416;2022-09-12T00:42:28;4.50;;;3.60;;
12665;SDS011;58531;59.050;17.416;2022-09-12T00:44:55;8.63;;;5.93;;
12665;SDS011;58531;59.050;17.416;2022-09-12T00:47:23;6.00;;;4.93;;
12665;SDS011;58531;59.050;17.416;2022-09-12T00:49:54;7.33;;;5.17;;
12665;SDS011;58531;59.050;17.416;2022-09-12T00:52:32;5.83;;;4.70;;
12665;SDS011;58531;59.050;17.416;2022-09-12T00:55:04;6.77;;;5.00;;
12665;SDS011;58531;59.050;17.416;2022-09-12T00:57:34;7.00;;;4.63;;
12665;SDS011;58531;59.050;17.416;2022-09-12T01:00:06;7.27;;;5.33;;
12665;SDS011;58531;59.050;17.416;2022-09-12T01:02:45;5.83;;;4.57;;
12665;SDS011;58531;59.050;17.416;2022-09-12T01:05:14;6.17;;;5.30;;
12665;SDS011;58531;59.050;17.416;2022-09-12T01:07:43;5.20;;;4.63;;
12665;SDS011;58531;59.050;17.416;2022-09-12T01:10:12;6.37;;;5.20;;
12665;SDS011;58531;59.050;17.416;2022-09-12T01:12:40;7.27;;;5.43;;
12665;SDS011;58531;59.050;17.416;2022-09-12T01:15:08;7.97;;;5.13;;
12665;SDS011;58531;59.050;17.416;2022-09-12T01:17:37;6.73;;;5.20;;
12665;SDS011;58531;59.050;17.416;2022-09-12T01:20:27;5.80;;;5.17;;
12665;SDS011;58531;59.050;17.416;2022-09-12T01:23:15;5.13;;;4.47;;
12665;SDS011;58531;59.050;17.416;2022-09-12T01:26:04;6.40;;;4.23;;
12665;SDS011;58531;59.050;17.416;2022-09-12T01:28:48;7.17;;;4.10;;
12665;SDS011;58531;59.050;17.416;2022-09-12T01:31:32;4.03;;;3.63;;
12665;SDS011;58531;59.050;17.416;2022-09-12T01:34:09;3.90;;;3.57;;
12665;SDS011;58531;59.050;17.416;2022-09-12T01:36:50;5.43;;;3.50;;
12665;SDS011;58531;59.050;17.416;2022-09-12T01:39:27;5.70;;;3.80;;
12665;SDS011;58531;59.050;17.416;2022-09-12T01:42:04;5.53;;;3.47;;
12665;SDS011;58531;59.050;17.416;2022-09-12T01:44:38;4.57;;;3.47;;
12665;SDS011;58531;59.050;17.416;2022-09-12T01:47:13;5.17;;;3.70;;
12665;SDS011;58531;59.050;17.416;2022-09-12T01:49:48;5.67;;;3.50;;
12665;SDS011;58531;59.050;17.416;2022-09-12T01:52:21;5.63;;;3.93;;
12665;SDS011;58531;59.050;17.416;2022-09-12T01:54:53;4.37;;;3.40;;
12665;SDS011;58531;59.050;17.416;2022-09-12T01:57:26;5.00;;;3.43;;
12665;SDS011;58531;59.050;17.416;2022-09-12T01:59:58;3.77;;;3.40;;
12665;SDS011;58531;59.050;17.416;2022-09-12T02:02:31;5.80;;;3.47;;
12665;SDS011;58531;59.050;17.416;2022-09-12T02:05:02;5.57;;;3.80;;
12665;SDS011;58531;59.050;17.416;2022-09-12T02:07:35;4.73;;;3.43;;
12665;SDS011;58531;59.050;17.416;2022-09-12T02:10:06;4.27;;;3.37;;
12665;SDS011;58531;59.050;17.416;2022-09-12T02:12:37;5.73;;;3.63;;
12665;SDS011;58531;59.050;17.416;2022-09-12T02:15:09;3.90;;;3.50;;
12665;SDS011;58531;59.050;17.416;2022-09-12T02:17:40;5.97;;;3.60;;
12665;SDS011;58531;59.050;17.416;2022-09-12T02:20:13;4.97;;;3.63;;
12665;SDS011;58531;59.050;17.416;2022-09-12T02:22:43;4.40;;;3.30;;
12665;SDS011;58531;59.050;17.416;2022-09-12T02:25:14;4.90;;;3.57;;
12665;SDS011;58531;59.050;17.416;2022-09-12T02:27:44;4.47;;;3.57;;
12665;SDS011;58531;59.050;17.416;2022-09-12T02:30:14;5.27;;;3.50;;
12665;SDS011;58531;59.050;17.416;2022-09-12T02:32:48;4.00;;;3.50;;
12665;SDS011;58531;59.050;17.416;2022-09-12T02:35:26;5.00;;;3.50;;
12665;SDS011;58531;59.050;17.416;2022-09-12T02:38:01;5.73;;;3.63;;
12665;SDS011;58531;59.050;17.416;2022-09-12T02:40:31;5.73;;;3.97;;
12665;SDS011;58531;59.050;17.416;2022-09-12T02:42:59;6.33;;;3.50;;
12665;SDS011;58531;59.050;17.416;2022-09-12T02:45:27;5.87;;;3.93;;
12665;SDS011;58531;59.050;17.416;2022-09-12T02:47:58;7.93;;;4.03;;
12665;SDS011;58531;59.050;17.416;2022-09-12T02:50:29;5.83;;;3.73;;
12665;SDS011;58531;59.050;17.416;2022-09-12T02:52:57;7.27;;;3.90;;
12665;SDS011;58531;59.050;17.416;2022-09-12T02:55:28;7.30;;;4.70;;
12665;SDS011;58531;59.050;17.416;2022-09-12T02:57:56;5.30;;;3.70;;
12665;SDS011;58531;59.050;17.416;2022-09-12T03:00:23;5.17;;;4.03;;
12665;SDS011;58531;59.050;17.416;2022-09-12T03:05:52;5.33;;;3.90;;
12665;SDS011;58531;59.050;17.416;2022-09-12T03:08:27;7.07;;;4.30;;
12665;SDS011;58531;59.050;17.416;2022-09-12T03:14:12;8.70;;;5.33;;
12665;SDS011;58531;59.050;17.416;2022-09-12T03:17:00;5.33;;;4.67;;
12665;SDS011;58531;59.050;17.416;2022-09-12T03:19:40;7.47;;;5.00;;
12665;SDS011;58531;59.050;17.416;2022-09-12T03:22:18;6.27;;;4.37;;
12665;SDS011;58531;59.050;17.416;2022-09-12T03:24:55;5.30;;;4.40;;
12665;SDS011;58531;59.050;17.416;2022-09-12T03:27:31;6.77;;;4.57;;
12665;SDS011;58531;59.050;17.416;2022-09-12T03:30:00;6.90;;;5.10;;
12665;SDS011;58531;59.050;17.416;2022-09-12T03:32:41;6.63;;;4.63;;
12665;SDS011;58531;59.050;17.416;2022-09-12T03:35:11;14.00;;;5.57;;
12665;SDS011;58531;59.050;17.416;2022-09-12T03:37:39;10.13;;;5.13;;
12665;SDS011;58531;59.050;17.416;2022-09-12T03:40:07;6.07;;;4.60;;
12665;SDS011;58531;59.050;17.416;2022-09-12T03:42:35;14.73;;;4.97;;
12665;SDS011;58531;59.050;17.416;2022-09-12T03:45:03;14.67;;;5.40;;
12665;SDS011;58531;59.050;17.416;2022-09-12T03:47:30;9.87;;;5.60;;
12665;SDS011;58531;59.050;17.416;2022-09-12T03:49:57;8.03;;;5.27;;
12665;SDS011;58531;59.050;17.416;2022-09-12T03:52:25;7.23;;;4.67;;
12665;SDS011;58531;59.050;17.416;2022-09-12T03:54:52;7.17;;;4.27;;
12665;SDS011;58531;59.050;17.416;2022-09-12T03:57:19;7.23;;;4.73;;
12665;SDS011;58531;59.050;17.416;2022-09-12T03:59:47;6.30;;;4.67;;
12665;SDS011;58531;59.050;17.416;2022-09-12T04:02:14;6.50;;;4.47;;
12665;SDS011;58531;59.050;17.416;2022-09-12T04:04:41;6.53;;;4.13;;
12665;SDS011;58531;59.050;17.416;2022-09-12T04:07:08;6.70;;;5.20;;
12665;SDS011;58531;59.050;17.416;2022-09-12T04:09:36;6.60;;;4.50;;
12665;SDS011;58531;59.050;17.416;2022-09-12T04:12:04;7.27;;;4.50;;
12665;SDS011;58531;59.050;17.416;2022-09-12T04:14:31;7.07;;;4.43;;
12665;SDS011;58531;59.050;17.416;2022-09-12T04:16:58;6.23;;;4.10;;
12665;SDS011;58531;59.050;17.416;2022-09-12T04:19:25;4.90;;;4.20;;
12665;SDS011;58531;59.050;17.416;2022-09-12T04:21:52;7.30;;;4.40;;
12665;SDS011;58531;59.050;17.416;2022-09-12T04:24:19;7.20;;;4.67;;
12665;SDS011;58531;59.050;17.416;2022-09-12T04:26:47;6.50;;;4.33;;
12665;SDS011;58531;59.050;17.416;2022-09-12T04:29:14;7.43;;;3.93;;
12665;SDS011;58531;59.050;17.416;2022-09-12T04:31:41;6.47;;;4.67;;
12665;SDS011;58531;59.050;17.416;2022-09-12T04:34:08;7.03;;;4.33;;
12665;SDS011;58531;59.050;17.416;2022-09-12T04:36:35;6.30;;;4.60;;
12665;SDS011;58531;59.050;17.416;2022-09-12T04:39:03;6.27;;;4.13;;
12665;SDS011;58531;59.050;17.416;2022-09-12T04:41:31;6.70;;;4.37;;
12665;SDS011;58531;59.050;17.416;2022-09-12T04:44:00;6.63;;;4.67;;
12665;SDS011;58531;59.050;17.416;2022-09-12T04:46:30;6.87;;;4.47;;
12665;SDS011;58531;59.050;17.416;2022-09-12T04:48:59;5.40;;;4.60;;
12665;SDS011;58531;59.050;17.416;2022-09-12T04:51:27;6.87;;;4.63;;
12665;SDS011;58531;59.050;17.416;2022-09-12T04:53:55;7.17;;;4.83;;
12665;SDS011;58531;59.050;17.416;2022-09-12T04:56:24;6.87;;;5.07;;
12665;SDS011;58531;59.050;17.416;2022-09-12T04:58:53;7.40;;;4.70;;
12665;SDS011;58531;59.050;17.416;2022-09-12T05:01:23;5.60;;;4.80;;
12665;SDS011;58531;59.050;17.416;2022-09-12T05:03:50;6.33;;;4.73;;
12665;SDS011;58531;59.050;17.416;2022-09-12T05:06:18;8.33;;;5.43;;
12665;SDS011;58531;59.050;17.416;2022-09-12T05:08:48;6.17;;;5.23;;
12665;SDS011;58531;59.050;17.416;2022-09-12T05:11:16;5.77;;;4.23;;
12665;SDS011;58531;59.050;17.416;2022-09-12T05:13:44;6.93;;;5.00;;
12665;SDS011;58531;59.050;17.416;2022-09-12T05:16:12;7.73;;;4.60;;
12665;SDS011;58531;59.050;17.416;2022-09-12T05:18:41;5.63;;;4.43;;
12665;SDS011;58531;59.050;17.416;2022-09-12T05:21:10;5.97;;;4.60;;
12665;SDS011;58531;59.050;17.416;2022-09-12T05:23:38;5.77;;;4.73;;
12665;SDS011;58531;59.050;17.416;2022-09-12T05:26:05;7.23;;;4.90;;
12665;SDS011;58531;59.050;17.416;2022-09-12T05:28:34;7.63;;;4.60;;
12665;SDS011;58531;59.050;17.416;2022-09-12T05:31:03;5.03;;;3.93;;
12665;SDS011;58531;59.050;17.416;2022-09-12T05:33:33;4.50;;;4.10;;
12665;SDS011;58531;59.050;17.416;2022-09-12T05:36:03;6.63;;;4.83;;
12665;SDS011;58531;59.050;17.416;2022-09-12T05:38:33;4.00;;;3.60;;
12665;SDS011;58531;59.050;17.416;2022-09-12T05:41:03;5.03;;;3.30;;
12665;SDS011;58531;59.050;17.416;2022-09-12T05:43:31;2.60;;;2.40;;
12665;SDS011;58531;59.050;17.416;2022-09-12T05:46:01;2.50;;;2.20;;
12665;SDS011;58531;59.050;17.416;2022-09-12T05:48:28;2.90;;;2.13;;
12665;SDS011;58531;59.050;17.416;2022-09-12T05:50:58;2.10;;;2.00;;
12665;SDS011;58531;59.050;17.416;2022-09-12T05:53:28;2.20;;;1.60;;
12665;SDS011;58531;59.050;17.416;2022-09-12T05:56:02;1.93;;;1.53;;
12665;SDS011;58531;59.050;17.416;2022-09-12T05:58:30;1.73;;;1.60;;
12665;SDS011;58531;59.050;17.416;2022-09-12T06:01:00;1.60;;;1.50;;
12665;SDS011;58531;59.050;17.416;2022-09-12T06:03:28;2.00;;;1.47;;
12665;SDS011;58531;59.050;17.416;2022-09-12T06:05:55;2.03;;;1.73;;
12665;SDS011;58531;59.050;17.416;2022-09-12T06:08:22;2.10;;;1.80;;
12665;SDS011;58531;59.050;17.416;2022-09-12T06:10:50;2.10;;;1.70;;
12665;SDS011;58531;59.050;17.416;2022-09-12T06:13:17;2.80;;;1.70;;
12665;SDS011;58531;59.050;17.416;2022-09-12T06:15:44;3.80;;;1.93;;
12665;SDS011;58531;59.050;17.416;2022-09-12T06:18:10;2.20;;;2.00;;
12665;SDS011;58531;59.050;17.416;2022-09-12T06:20:37;2.40;;;2.20;;
12665;SDS011;58531;59.050;17.416;2022-09-12T06:23:04;2.77;;;2.00;;
12665;SDS011;58531;59.050;17.416;2022-09-12T06:25:30;2.40;;;2.20;;
12665;SDS011;58531;59.050;17.416;2022-09-12T06:27:59;2.53;;;2.10;;
12665;SDS011;58531;59.050;17.416;2022-09-12T06:30:26;3.60;;;2.20;;
12665;SDS011;58531;59.050;17.416;2022-09-12T06:32:53;3.23;;;2.03;;
12665;SDS011;58531;59.050;17.416;2022-09-12T06:35:20;3.30;;;2.00;;
12665;SDS011;58531;59.050;17.416;2022-09-12T06:37:47;1.97;;;1.70;;
12665;SDS011;58531;59.050;17.416;2022-09-12T06:40:14;1.73;;;1.63;;
12665;SDS011;58531;59.050;17.416;2022-09-12T06:42:41;2.67;;;1.73;;
12665;SDS011;58531;59.050;17.416;2022-09-12T06:45:10;2.33;;;2.00;;
12665;SDS011;58531;59.050;17.416;2022-09-12T06:47:36;3.03;;;2.03;;
12665;SDS011;58531;59.050;17.416;2022-09-12T06:50:03;2.47;;;2.00;;
12665;SDS011;58531;59.050;17.416;2022-09-12T06:52:31;2.73;;;1.70;;
12665;SDS011;58531;59.050;17.416;2022-09-12T06:54:57;2.10;;;1.90;;
12665;SDS011;58531;59.050;17.416;2022-09-12T06:57:24;3.43;;;1.90;;
12665;SDS011;58531;59.050;17.416;2022-09-12T06:59:54;2.93;;;2.03;;
12665;SDS011;58531;59.050;17.416;2022-09-12T07:02:22;2.57;;;2.10;;
12665;SDS011;58531;59.050;17.416;2022-09-12T07:04:49;2.03;;;1.80;;
12665;SDS011;58531;59.050;17.416;2022-09-12T07:07:16;2.90;;;2.03;;
12665;SDS011;58531;59.050;17.416;2022-09-12T07:09:43;2.10;;;1.90;;
12665;SDS011;58531;59.050;17.416;2022-09-12T07:12:10;1.93;;;1.80;;
12665;SDS011;58531;59.050;17.416;2022-09-12T07:14:37;2.07;;;1.60;;
12665;SDS011;58531;59.050;17.416;2022-09-12T07:17:03;3.63;;;2.10;;
12665;SDS011;58531;59.050;17.416;2022-09-12T07:19:32;2.70;;;2.00;;
12665;SDS011;58531;59.050;17.416;2022-09-12T07:21:59;2.30;;;2.10;;
12665;SDS011;58531;59.050;17.416;2022-09-12T07:24:26;2.80;;;2.07;;
12665;SDS011;58531;59.050;17.416;2022-09-12T07:26:53;2.00;;;1.90;;
12665;SDS011;58531;59.050;17.416;2022-09-12T07:29:20;1.83;;;1.73;;
12665;SDS011;58531;59.050;17.416;2022-09-12T07:31:46;2.10;;;1.90;;
12665;SDS011;58531;59.050;17.416;2022-09-12T07:34:13;2.23;;;1.90;;
12665;SDS011;58531;59.050;17.416;2022-09-12T07:36:43;2.57;;;2.07;;
12665;SDS011;58531;59.050;17.416;2022-09-12T07:39:09;3.53;;;2.00;;
12665;SDS011;58531;59.050;17.416;2022-09-12T07:41:36;2.23;;;1.87;;
12665;SDS011;58531;59.050;17.416;2022-09-12T07:44:03;3.93;;;2.07;;
12665;SDS011;58531;59.050;17.416;2022-09-12T07:46:30;2.90;;;2.10;;
12665;SDS011;58531;59.050;17.416;2022-09-12T07:48:59;2.23;;;1.77;;
12665;SDS011;58531;59.050;17.416;2022-09-12T07:51:26;3.83;;;2.27;;
12665;SDS011;58531;59.050;17.416;2022-09-12T07:53:55;3.53;;;2.07;;
12665;SDS011;58531;59.050;17.416;2022-09-12T07:56:23;2.67;;;1.80;;
12665;SDS011;58531;59.050;17.416;2022-09-12T07:58:51;4.10;;;2.30;;
12665;SDS011;58531;59.050;17.416;2022-09-12T08:01:20;4.63;;;2.57;;
12665;SDS011;58531;59.050;17.416;2022-09-12T08:03:48;3.63;;;2.30;;
12665;SDS011;58531;59.050;17.416;2022-09-12T08:06:19;2.30;;;2.10;;
12665;SDS011;58531;59.050;17.416;2022-09-12T08:08:48;2.93;;;2.00;;
12665;SDS011;58531;59.050;17.416;2022-09-12T08:11:18;2.70;;;2.30;;
12665;SDS011;58531;59.050;17.416;2022-09-12T08:13:46;3.20;;;2.10;;
12665;SDS011;58531;59.050;17.416;2022-09-12T08:16:15;4.87;;;2.50;;
12665;SDS011;58531;59.050;17.416;2022-09-12T08:18:44;4.03;;;2.27;;
12665;SDS011;58531;59.050;17.416;2022-09-12T08:21:12;2.90;;;2.20;;
12665;SDS011;58531;59.050;17.416;2022-09-12T08:23:40;2.27;;;2.07;;
12665;SDS011;58531;59.050;17.416;2022-09-12T08:26:08;3.70;;;2.27;;
12665;SDS011;58531;59.050;17.416;2022-09-12T08:28:37;4.40;;;2.20;;
12665;SDS011;58531;59.050;17.416;2022-09-12T08:31:05;3.00;;;2.50;;
12665;SDS011;58531;59.050;17.416;2022-09-12T08:33:33;2.27;;;1.80;;
12665;SDS011;58531;59.050;17.416;2022-09-12T08:36:04;3.87;;;2.20;;
12665;SDS011;58531;59.050;17.416;2022-09-12T08:38:32;3.37;;;1.73;;
12665;SDS011;58531;59.050;17.416;2022-09-12T08:41:00;2.57;;;2.00;;
12665;SDS011;58531;59.050;17.416;2022-09-12T08:43:36;3.67;;;1.90;;
12665;SDS011;58531;59.050;17.416;2022-09-12T08:46:20;4.43;;;2.50;;
12665;SDS011;58531;59.050;17.416;2022-09-12T08:48:49;3.13;;;2.20;;
12665;SDS011;58531;59.050;17.416;2022-09-12T08:51:17;3.67;;;2.17;;
12665;SDS011;58531;59.050;17.416;2022-09-12T08:53:45;2.47;;;1.93;;
12665;SDS011;58531;59.050;17.416;2022-09-12T08:56:14;2.50;;;2.23;;
12665;SDS011;58531;59.050;17.416;2022-09-12T08:58:41;3.40;;;1.97;;
12665;SDS011;58531;59.050;17.416;2022-09-12T09:01:13;3.60;;;1.83;;
12665;SDS011;58531;59.050;17.416;2022-09-12T09:03:56;3.63;;;2.10;;
12665;SDS011;58531;59.050;17.416;2022-09-12T09:09:45;3.20;;;1.80;;
12665;SDS011;58531;59.050;17.416;2022-09-12T09:12:25;4.53;;;1.90;;
12665;SDS011;58531;59.050;17.416;2022-09-12T09:15:14;1.77;;;1.60;;
12665;SDS011;58531;59.050;17.416;2022-09-12T09:17:51;2.03;;;1.80;;
12665;SDS011;58531;59.050;17.416;2022-09-12T09:20:25;2.97;;;1.87;;
12665;SDS011;58531;59.050;17.416;2022-09-12T09:22:56;2.37;;;1.87;;
12665;SDS011;58531;59.050;17.416;2022-09-12T09:25:34;1.87;;;1.60;;
12665;SDS011;58531;59.050;17.416;2022-09-12T09:28:09;1.80;;;1.60;;
12665;SDS011;58531;59.050;17.416;2022-09-12T09:30:41;3.33;;;1.60;;
12665;SDS011;58531;59.050;17.416;2022-09-12T09:33:12;3.33;;;2.10;;
12665;SDS011;58531;59.050;17.416;2022-09-12T09:35:45;2.67;;;1.63;;
12665;SDS011;58531;59.050;17.416;2022-09-12T09:38:17;3.10;;;1.90;;
12665;SDS011;58531;59.050;17.416;2022-09-12T09:40:52;2.00;;;1.80;;
12665;SDS011;58531;59.050;17.416;2022-09-12T09:43:32;4.57;;;1.83;;
12665;SDS011;58531;59.050;17.416;2022-09-12T09:45:59;2.00;;;1.80;;
12665;SDS011;58531;59.050;17.416;2022-09-12T09:48:28;1.53;;;1.43;;
12665;SDS011;58531;59.050;17.416;2022-09-12T09:50:58;2.43;;;1.70;;
12665;SDS011;58531;59.050;17.416;2022-09-12T09:53:31;2.77;;;1.80;;
12665;SDS011;58531;59.050;17.416;2022-09-12T09:56:05;1.83;;;1.53;;
12665;SDS011;58531;59.050;17.416;2022-09-12T09:58:37;2.90;;;2.10;;
12665;SDS011;58531;59.050;17.416;2022-09-12T10:01:05;3.43;;;1.50;;
12665;SDS011;58531;59.050;17.416;2022-09-12T10:03:41;1.50;;;1.40;;
12665;SDS011;58531;59.050;17.416;2022-09-12T10:06:21;1.90;;;1.70;;
12665;SDS011;58531;59.050;17.416;2022-09-12T10:08:50;2.17;;;1.83;;
12665;SDS011;58531;59.050;17.416;2022-09-12T10:11:28;1.70;;;1.60;;
12665;SDS011;58531;59.050;17.416;2022-09-12T10:13:55;1.87;;;1.60;;
12665;SDS011;58531;59.050;17.416;2022-09-12T10:16:25;2.40;;;1.40;;
12665;SDS011;58531;59.050;17.416;2022-09-12T10:18:55;4.03;;;1.70;;
12665;SDS011;58531;59.050;17.416;2022-09-12T10:21:27;2.40;;;1.70;;
12665;SDS011;58531;59.050;17.416;2022-09-12T10:23:59;2.57;;;1.90;;
12665;SDS011;58531;59.050;17.416;2022-09-12T10:26:32;2.47;;;1.67;;
12665;SDS011;58531;59.050;17.416;2022-09-12T10:29:05;2.90;;;1.53;;
12665;SDS011;58531;59.050;17.416;2022-09-12T10:31:43;1.63;;;1.53;;
12665;SDS011;58531;59.050;17.416;2022-09-12T10:37:03;2.60;;;1.73;;
12665;SDS011;58531;59.050;17.416;2022-09-12T10:39:31;1.97;;;1.40;;
12665;SDS011;58531;59.050;17.416;2022-09-12T10:42:00;1.87;;;1.60;;
12665;SDS011;58531;59.050;17.416;2022-09-12T10:44:27;1.57;;;1.47;;
12665;SDS011;58531;59.050;17.416;2022-09-12T10:46:56;2.57;;;1.30;;
12665;SDS011;58531;59.050;17.416;2022-09-12T10:49:25;1.97;;;1.37;;
12665;SDS011;58531;59.050;17.416;2022-09-12T10:51:56;2.10;;;1.27;;
12665;SDS011;58531;59.050;17.416;2022-09-12T10:54:41;1.60;;;1.50;;
12665;SDS011;58531;59.050;17.416;2022-09-12T10:57:21;2.70;;;1.50;;
12665;SDS011;58531;59.050;17.416;2022-09-12T11:00:04;1.30;;;1.20;;
12665;SDS011;58531;59.050;17.416;2022-09-12T11:02:42;1.90;;;1.40;;
12665;SDS011;58531;59.050;17.416;2022-09-12T11:05:19;1.40;;;1.20;;
12665;SDS011;58531;59.050;17.416;2022-09-12T11:08:02;1.27;;;1.17;;
12665;SDS011;58531;59.050;17.416;2022-09-12T11:10:39;2.60;;;1.40;;
12665;SDS011;58531;59.050;17.416;2022-09-12T11:13:22;1.63;;;1.40;;
12665;SDS011;58531;59.050;17.416;2022-09-12T11:16:01;4.87;;;1.50;;
12665;SDS011;58531;59.050;17.416;2022-09-12T11:18:41;1.40;;;1.30;;
12665;SDS011;58531;59.050;17.416;2022-09-12T11:21:28;1.50;;;1.10;;
12665;SDS011;58531;59.050;17.416;2022-09-12T11:24:26;1.87;;;1.20;;
12665;SDS011;58531;59.050;17.416;2022-09-12T11:27:06;1.87;;;1.20;;
12665;SDS011;58531;59.050;17.416;2022-09-12T11:29:47;1.50;;;1.00;;
12665;SDS011;58531;59.050;17.416;2022-09-12T11:32:31;2.43;;;1.47;;
12665;SDS011;58531;59.050;17.416;2022-09-12T11:35:09;1.77;;;1.37;;
12665;SDS011;58531;59.050;17.416;2022-09-12T11:37:50;1.67;;;1.33;;
12665;SDS011;58531;59.050;17.416;2022-09-12T11:40:27;1.73;;;1.40;;
12665;SDS011;58531;59.050;17.416;2022-09-12T11:43:00;3.67;;;1.83;;
12665;SDS011;58531;59.050;17.416;2022-09-12T11:45:34;1.80;;;1.40;;
12665;SDS011;58531;59.050;17.416;2022-09-12T11:48:05;1.60;;;1.40;;
12665;SDS011;58531;59.050;17.416;2022-09-12T11:50:37;2.07;;;1.30;;
12665;SDS011;58531;59.050;17.416;2022-09-12T11:53:06;1.50;;;1.40;;
12665;SDS011;58531;59.050;17.416;2022-09-12T11:55:46;1.90;;;1.60;;
12665;SDS011;58531;59.050;17.416;2022-09-12T11:58:19;2.10;;;1.40;;
12665;SDS011;58531;59.050;17.416;2022-09-12T12:00:50;3.30;;;1.30;;
12665;SDS011;58531;59.050;17.416;2022-09-12T12:03:22;1.90;;;1.43;;
12665;SDS011;58531;59.050;17.416;2022-09-12T12:05:56;2.23;;;1.30;;
12665;SDS011;58531;59.050;17.416;2022-09-12T12:08:28;2.47;;;1.20;;
12665;SDS011;58531;59.050;17.416;2022-09-12T12:10:59;1.47;;;1.37;;
12665;SDS011;58531;59.050;17.416;2022-09-12T12:13:28;1.60;;;1.20;;
12665;SDS011;58531;59.050;17.416;2022-09-12T12:16:00;1.50;;;1.40;;
12665;SDS011;58531;59.050;17.416;2022-09-12T12:18:31;1.73;;;1.50;;
12665;SDS011;58531;59.050;17.416;2022-09-12T12:21:14;1.30;;;1.20;;
12665;SDS011;58531;59.050;17.416;2022-09-12T12:24:00;1.47;;;1.10;;
12665;SDS011;58531;59.050;17.416;2022-09-12T12:26:41;6.03;;;1.57;;
12665;SDS011;58531;59.050;17.416;2022-09-12T12:29:10;4.93;;;1.30;;
12665;SDS011;58531;59.050;17.416;2022-09-12T12:34:38;2.00;;;1.57;;
12665;SDS011;58531;59.050;17.416;2022-09-12T12:40:06;1.83;;;1.63;;
12665;SDS011;58531;59.050;17.416;2022-09-12T12:45:48;1.83;;;1.33;;
12665;SDS011;58531;59.050;17.416;2022-09-12T12:48:30;1.73;;;1.27;;
12665;SDS011;58531;59.050;17.416;2022-09-12T12:54:29;1.30;;;1.20;;
12665;SDS011;58531;59.050;17.416;2022-09-12T12:57:02;1.60;;;1.50;;
12665;SDS011;58531;59.050;17.416;2022-09-12T12:59:32;1.40;;;1.30;;
12665;SDS011;58531;59.050;17.416;2022-09-12T13:01:59;2.17;;;1.43;;
12665;SDS011;58531;59.050;17.416;2022-09-12T13:04:27;2.87;;;1.43;;
12665;SDS011;58531;59.050;17.416;2022-09-12T13:06:59;3.27;;;1.67;;
12665;SDS011;58531;59.050;17.416;2022-09-12T13:09:30;1.83;;;1.40;;
12665;SDS011;58531;59.050;17.416;2022-09-12T13:12:00;2.33;;;1.57;;
12665;SDS011;58531;59.050;17.416;2022-09-12T13:14:35;3.10;;;1.60;;
12665;SDS011;58531;59.050;17.416;2022-09-12T13:17:14;3.50;;;1.70;;
12665;SDS011;58531;59.050;17.416;2022-09-12T13:19:52;4.47;;;1.67;;
12665;SDS011;58531;59.050;17.416;2022-09-12T13:22:36;3.70;;;1.67;;
12665;SDS011;58531;59.050;17.416;2022-09-12T13:25:15;2.47;;;1.40;;
12665;SDS011;58531;59.050;17.416;2022-09-12T13:27:55;3.00;;;1.60;;
12665;SDS011;58531;59.050;17.416;2022-09-12T13:30:34;2.47;;;1.77;;
12665;SDS011;58531;59.050;17.416;2022-09-12T13:35:52;2.30;;;1.47;;
12665;SDS011;58531;59.050;17.416;2022-09-12T13:38:32;3.13;;;1.63;;
12665;SDS011;58531;59.050;17.416;2022-09-12T13:41:16;2.73;;;1.70;;
12665;SDS011;58531;59.050;17.416;2022-09-12T13:43:56;2.47;;;1.50;;
12665;SDS011;58531;59.050;17.416;2022-09-12T13:46:26;4.70;;;1.73;;
12665;SDS011;58531;59.050;17.416;2022-09-12T13:48:56;2.77;;;1.53;;
12665;SDS011;58531;59.050;17.416;2022-09-12T13:51:26;2.00;;;1.40;;
12665;SDS011;58531;59.050;17.416;2022-09-12T13:53:56;3.07;;;1.60;;
12665;SDS011;58531;59.050;17.416;2022-09-12T13:56:27;1.50;;;1.30;;
12665;SDS011;58531;59.050;17.416;2022-09-12T13:58:55;2.33;;;1.90;;
12665;SDS011;58531;59.050;17.416;2022-09-12T14:01:23;1.53;;;1.30;;
12665;SDS011;58531;59.050;17.416;2022-09-12T14:04:07;2.67;;;1.80;;
12665;SDS011;58531;59.050;17.416;2022-09-12T14:06:58;1.83;;;1.47;;
12665;SDS011;58531;59.050;17.416;2022-09-12T14:09:27;1.90;;;1.70;;
12665;SDS011;58531;59.050;17.416;2022-09-12T14:11:57;3.13;;;1.97;;
12665;SDS011;58531;59.050;17.416;2022-09-12T14:14:25;2.00;;;1.60;;
12665;SDS011;58531;59.050;17.416;2022-09-12T14:16:56;3.33;;;1.50;;
12665;SDS011;58531;59.050;17.416;2022-09-12T14:19:24;2.53;;;1.40;;
12665;SDS011;58531;59.050;17.416;2022-09-12T14:21:53;3.83;;;1.90;;
12665;SDS011;58531;59.050;17.416;2022-09-12T14:24:21;2.10;;;1.63;;
12665;SDS011;58531;59.050;17.416;2022-09-12T14:26:49;2.60;;;1.67;;
12665;SDS011;58531;59.050;17.416;2022-09-12T14:29:20;2.90;;;1.70;;
12665;SDS011;58531;59.050;17.416;2022-09-12T14:31:58;2.00;;;1.60;;
12665;SDS011;58531;59.050;17.416;2022-09-12T14:34:28;2.30;;;2.00;;
12665;SDS011;58531;59.050;17.416;2022-09-12T14:36:55;2.97;;;1.70;;
12665;SDS011;58531;59.050;17.416;2022-09-12T14:39:23;2.70;;;1.63;;
12665;SDS011;58531;59.050;17.416;2022-09-12T14:42:02;3.67;;;1.43;;
12665;SDS011;58531;59.050;17.416;2022-09-12T14:44:31;1.87;;;1.50;;
12665;SDS011;58531;59.050;17.416;2022-09-12T14:47:09;2.03;;;1.60;;
12665;SDS011;58531;59.050;17.416;2022-09-12T14:49:39;2.10;;;1.90;;
12665;SDS011;58531;59.050;17.416;2022-09-12T14:52:07;3.67;;;1.50;;
12665;SDS011;58531;59.050;17.416;2022-09-12T14:54:54;1.50;;;1.40;;
12665;SDS011;58531;59.050;17.416;2022-09-12T14:57:35;2.13;;;1.80;;
12665;SDS011;58531;59.050;17.416;2022-09-12T15:02:47;3.20;;;1.77;;
12665;SDS011;58531;59.050;17.416;2022-09-12T15:05:17;2.67;;;1.50;;
12665;SDS011;58531;59.050;17.416;2022-09-12T15:07:51;5.23;;;1.90;;
12665;SDS011;58531;59.050;17.416;2022-09-12T15:10:20;5.70;;;1.80;;
12665;SDS011;58531;59.050;17.416;2022-09-12T15:12:49;2.30;;;1.40;;
12665;SDS011;58531;59.050;17.416;2022-09-12T15:15:28;2.57;;;1.63;;
12665;SDS011;58531;59.050;17.416;2022-09-12T15:17:55;2.43;;;1.73;;
12665;SDS011;58531;59.050;17.416;2022-09-12T15:20:24;4.50;;;1.63;;
12665;SDS011;58531;59.050;17.416;2022-09-12T15:22:50;3.13;;;1.70;;
12665;SDS011;58531;59.050;17.416;2022-09-12T15:25:18;1.60;;;1.50;;
12665;SDS011;58531;59.050;17.416;2022-09-12T15:27:45;3.37;;;2.00;;